sensor_id;sensor_type;location;lat;lon;timestamp;pressure;altitude;pressure_sealevel;temperature;humidity
45731;BME280;31440;48.584;13.460;2022-10-29T00:00:57;97682.00;;;10.57;100.00
45731;BME280;31440;48.584;13.460;2022-10-29T00:03:23;97691.66;;;10.54;100.00
45731;BME280;31440;48.584;13.460;2022-10-29T00:06:00;97682.41;;;10.40;100.00
45731;BME280;31440;48.584;13.460;2022-10-29T00:08:27;97684.00;;;10.47;100.00
45731;BME280;31440;48.584;13.460;2022-10-29T00:10:53;97688.81;;;10.27;100.00
45731;BME280;31440;48.584;13.460;2022-10-29T00:13:19;97690.34;;;10.36;100.00
45731;BME280;31440;48.584;13.460;2022-10-29T00:15:44;97673.13;;;10.32;100.00
45731;BME280;31440;48.584;13.460;2022-10-29T00:18:10;97689.88;;;10.18;100.00
45731;BME280;31440;48.584;13.460;2022-10-29T00:20:35;97690.97;;;10.10;100.00
45731;BME280;31440;48.584;13.460;2022-10-29T00:23:01;97703.16;;;9.66;100.00
45731;BME280;31440;48.584;13.460;2022-10-29T00:25:26;97702.84;;;10.20;100.00
45731;BME280;31440;48.584;13.460;2022-10-29T00:27:54;97683.03;;;10.16;100.00
45731;BME280;31440;48.584;13.460;2022-10-29T00:30:20;97701.19;;;10.18;100.00
45731;BME280;31440;48.584;13.460;2022-10-29T00:32:45;97703.25;;;10.39;100.00
45731;BME280;31440;48.584;13.460;2022-10-29T00:35:11;97706.66;;;10.05;100.00
45731;BME280;31440;48.584;13.460;2022-10-29T00:37:37;97707.09;;;10.24;100.00
45731;BME280;31440;48.584;13.460;2022-10-29T00:40:03;97709.88;;;10.16;100.00
45731;BME280;31440;48.584;13.460;2022-10-29T00:42:29;97708.47;;;10.02;100.00
45731;BME280;31440;48.584;13.460;2022-10-29T00:44:54;97714.50;;;10.02;100.00
45731;BME280;31440;48.584;13.460;2022-10-29T00:47:24;97713.34;;;10.17;100.00
45731;BME280;31440;48.584;13.460;2022-10-29T00:49:56;97713.44;;;10.12;100.00
45731;BME280;31440;48.584;13.460;2022-10-29T00:52:25;97716.53;;;10.28;100.00
45731;BME280;31440;48.584;13.460;2022-10-29T00:54:54;97711.16;;;9.99;100.00
45731;BME280;31440;48.584;13.460;2022-10-29T00:57:26;97694.81;;;9.94;100.00
45731;BME280;31440;48.584;13.460;2022-10-29T00:59:53;97702.31;;;10.06;100.00
45731;BME280;31440;48.584;13.460;2022-10-29T01:02:20;97701.81;;;10.27;100.00
45731;BME280;31440;48.584;13.460;2022-10-29T01:04:47;97702.06;;;10.18;100.00
45731;BME280;31440;48.584;13.460;2022-10-29T01:07:13;97701.03;;;10.24;100.00
45731;BME280;31440;48.584;13.460;2022-10-29T01:09:39;97708.06;;;10.18;100.00
45731;BME280;31440;48.584;13.460;2022-10-29T01:12:17;97698.44;;;10.24;100.00
45731;BME280;31440;48.584;13.460;2022-10-29T01:15:03;97690.41;;;9.97;100.00
45731;BME280;31440;48.584;13.460;2022-10-29T01:28:59;97692.19;;;9.54;100.00
45731;BME280;31440;48.584;13.460;2022-10-29T01:31:53;97691.06;;;9.65;100.00
45731;BME280;31440;48.584;13.460;2022-10-29T01:37:19;97691.31;;;9.95;100.00
45731;BME280;31440;48.584;13.460;2022-10-29T01:40:01;97692.66;;;9.72;100.00
45731;BME280;31440;48.584;13.460;2022-10-29T01:42:39;97700.38;;;9.75;100.00
45731;BME280;31440;48.584;13.460;2022-10-29T01:45:15;97696.09;;;9.76;100.00
45731;BME280;31440;48.584;13.460;2022-10-29T01:47:58;97699.97;;;9.95;100.00
45731;BME280;31440;48.584;13.460;2022-10-29T01:50:24;97695.19;;;9.75;100.00
45731;BME280;31440;48.584;13.460;2022-10-29T01:52:51;97700.81;;;9.97;100.00
45731;BME280;31440;48.584;13.460;2022-10-29T01:55:19;97694.38;;;9.73;100.00
45731;BME280;31440;48.584;13.460;2022-10-29T01:57:46;97692.59;;;9.75;100.00
45731;BME280;31440;48.584;13.460;2022-10-29T02:00:16;97689.28;;;9.67;100.00
45731;BME280;31440;48.584;13.460;2022-10-29T02:08:51;97684.19;;;9.64;100.00
45731;BME280;31440;48.584;13.460;2022-10-29T02:11:33;97693.75;;;9.62;100.00
45731;BME280;31440;48.584;13.460;2022-10-29T02:14:08;97688.56;;;9.62;100.00
45731;BME280;31440;48.584;13.460;2022-10-29T02:16:35;97684.59;;;9.46;100.00
45731;BME280;31440;48.584;13.460;2022-10-29T02:19:00;97677.91;;;9.34;100.00
45731;BME280;31440;48.584;13.460;2022-10-29T02:21:26;97678.75;;;9.35;100.00
45731;BME280;31440;48.584;13.460;2022-10-29T02:23:52;97680.41;;;9.39;100.00
45731;BME280;31440;48.584;13.460;2022-10-29T02:26:17;97669.53;;;9.20;100.00
45731;BME280;31440;48.584;13.460;2022-10-29T02:28:43;97675.59;;;9.21;100.00
45731;BME280;31440;48.584;13.460;2022-10-29T02:31:09;97666.38;;;9.06;100.00
45731;BME280;31440;48.584;13.460;2022-10-29T02:33:35;97663.53;;;9.18;100.00
45731;BME280;31440;48.584;13.460;2022-10-29T02:36:01;97663.06;;;8.98;100.00
45731;BME280;31440;48.584;13.460;2022-10-29T02:38:26;97663.38;;;9.26;100.00
45731;BME280;31440;48.584;13.460;2022-10-29T02:40:52;97663.88;;;9.43;100.00
45731;BME280;31440;48.584;13.460;2022-10-29T02:43:18;97670.09;;;9.36;100.00
45731;BME280;31440;48.584;13.460;2022-10-29T02:45:43;97669.81;;;9.08;100.00
45731;BME280;31440;48.584;13.460;2022-10-29T02:48:09;97666.72;;;9.31;100.00
45731;BME280;31440;48.584;13.460;2022-10-29T02:50:34;97677.78;;;9.40;100.00
45731;BME280;31440;48.584;13.460;2022-10-29T02:53:00;97677.19;;;9.28;100.00
45731;BME280;31440;48.584;13.460;2022-10-29T02:55:25;97678.31;;;9.14;100.00
45731;BME280;31440;48.584;13.460;2022-10-29T02:57:51;97682.91;;;9.43;100.00
45731;BME280;31440;48.584;13.460;2022-10-29T03:00:16;97687.19;;;9.03;100.00
45731;BME280;31440;48.584;13.460;2022-10-29T03:02:42;97673.94;;;9.17;100.00
45731;BME280;31440;48.584;13.460;2022-10-29T03:05:08;97672.91;;;8.81;100.00
45731;BME280;31440;48.584;13.460;2022-10-29T03:07:34;97666.03;;;8.78;100.00
45731;BME280;31440;48.584;13.460;2022-10-29T03:10:00;97665.00;;;8.88;100.00
45731;BME280;31440;48.584;13.460;2022-10-29T03:12:25;97666.72;;;8.89;100.00
45731;BME280;31440;48.584;13.460;2022-10-29T03:14:51;97669.53;;;9.22;100.00
45731;BME280;31440;48.584;13.460;2022-10-29T03:17:16;97670.41;;;9.21;100.00
45731;BME280;31440;48.584;13.460;2022-10-29T03:19:42;97673.38;;;9.02;100.00
45731;BME280;31440;48.584;13.460;2022-10-29T03:22:07;97674.56;;;8.85;100.00
45731;BME280;31440;48.584;13.460;2022-10-29T03:24:33;97676.03;;;8.98;100.00
45731;BME280;31440;48.584;13.460;2022-10-29T03:26:58;97675.72;;;9.13;100.00
45731;BME280;31440;48.584;13.460;2022-10-29T03:29:24;97689.88;;;8.97;100.00
45731;BME280;31440;48.584;13.460;2022-10-29T03:31:49;97687.25;;;9.00;100.00
45731;BME280;31440;48.584;13.460;2022-10-29T03:34:15;97688.41;;;8.84;100.00
45731;BME280;31440;48.584;13.460;2022-10-29T03:36:40;97689.69;;;9.07;100.00
45731;BME280;31440;48.584;13.460;2022-10-29T03:39:06;97677.78;;;8.97;100.00
45731;BME280;31440;48.584;13.460;2022-10-29T03:41:32;97685.25;;;8.68;100.00
45731;BME280;31440;48.584;13.460;2022-10-29T03:43:57;97681.00;;;8.64;100.00
45731;BME280;31440;48.584;13.460;2022-10-29T03:46:23;97666.19;;;8.72;100.00
45731;BME280;31440;48.584;13.460;2022-10-29T03:48:49;97665.28;;;8.73;100.00
45731;BME280;31440;48.584;13.460;2022-10-29T03:51:14;97663.81;;;8.58;100.00
45731;BME280;31440;48.584;13.460;2022-10-29T03:53:40;97661.00;;;8.70;100.00
45731;BME280;31440;48.584;13.460;2022-10-29T03:56:06;97662.06;;;8.59;100.00
45731;BME280;31440;48.584;13.460;2022-10-29T03:58:31;97665.59;;;8.56;100.00
45731;BME280;31440;48.584;13.460;2022-10-29T04:01:02;97670.59;;;8.65;100.00
45731;BME280;31440;48.584;13.460;2022-10-29T04:03:30;97672.09;;;8.77;100.00
45731;BME280;31440;48.584;13.460;2022-10-29T04:05:56;97683.09;;;8.91;100.00
45731;BME280;31440;48.584;13.460;2022-10-29T04:08:22;97671.34;;;8.72;100.00
45731;BME280;31440;48.584;13.460;2022-10-29T04:10:49;97688.94;;;8.56;100.00
45731;BME280;31440;48.584;13.460;2022-10-29T04:13:15;97683.56;;;8.65;100.00
45731;BME280;31440;48.584;13.460;2022-10-29T04:15:41;97683.53;;;8.67;100.00
45731;BME280;31440;48.584;13.460;2022-10-29T04:18:07;97682.97;;;8.51;100.00
45731;BME280;31440;48.584;13.460;2022-10-29T04:20:34;97676.38;;;8.79;100.00
45731;BME280;31440;48.584;13.460;2022-10-29T04:22:59;97670.94;;;8.47;100.00
45731;BME280;31440;48.584;13.460;2022-10-29T04:25:25;97663.09;;;8.50;100.00
45731;BME280;31440;48.584;13.460;2022-10-29T04:27:53;97679.19;;;8.17;100.00
45731;BME280;31440;48.584;13.460;2022-10-29T04:30:19;97678.13;;;8.30;100.00
45731;BME280;31440;48.584;13.460;2022-10-29T04:32:45;97686.19;;;8.64;100.00
45731;BME280;31440;48.584;13.460;2022-10-29T04:35:10;97693.41;;;8.45;100.00
45731;BME280;31440;48.584;13.460;2022-10-29T04:37:36;97684.84;;;8.41;100.00
45731;BME280;31440;48.584;13.460;2022-10-29T04:40:01;97680.34;;;8.53;100.00
45731;BME280;31440;48.584;13.460;2022-10-29T04:42:27;97674.31;;;8.52;100.00
45731;BME280;31440;48.584;13.460;2022-10-29T04:44:52;97670.66;;;8.62;100.00
45731;BME280;31440;48.584;13.460;2022-10-29T04:47:18;97666.00;;;8.79;100.00
45731;BME280;31440;48.584;13.460;2022-10-29T04:49:44;97665.81;;;8.90;100.00
45731;BME280;31440;48.584;13.460;2022-10-29T04:52:09;97677.19;;;8.83;100.00
45731;BME280;31440;48.584;13.460;2022-10-29T04:54:35;97680.66;;;8.82;100.00
45731;BME280;31440;48.584;13.460;2022-10-29T04:57:00;97685.69;;;8.91;100.00
45731;BME280;31440;48.584;13.460;2022-10-29T04:59:26;97676.03;;;8.98;100.00
45731;BME280;31440;48.584;13.460;2022-10-29T05:01:51;97680.75;;;8.77;100.00
45731;BME280;31440;48.584;13.460;2022-10-29T05:04:17;97675.69;;;8.71;100.00
45731;BME280;31440;48.584;13.460;2022-10-29T05:06:42;97674.19;;;8.58;100.00
45731;BME280;31440;48.584;13.460;2022-10-29T05:09:08;97671.75;;;8.51;100.00
45731;BME280;31440;48.584;13.460;2022-10-29T05:11:33;97672.72;;;8.43;100.00
45731;BME280;31440;48.584;13.460;2022-10-29T05:13:59;97671.47;;;8.14;100.00
45731;BME280;31440;48.584;13.460;2022-10-29T05:16:24;97672.63;;;7.94;100.00
45731;BME280;31440;48.584;13.460;2022-10-29T05:18:50;97676.88;;;7.98;100.00
45731;BME280;31440;48.584;13.460;2022-10-29T05:21:15;97674.94;;;8.13;100.00
45731;BME280;31440;48.584;13.460;2022-10-29T05:23:41;97672.44;;;8.05;100.00
45731;BME280;31440;48.584;13.460;2022-10-29T05:26:06;97680.41;;;7.94;100.00
45731;BME280;31440;48.584;13.460;2022-10-29T05:28:32;97682.47;;;7.69;100.00
45731;BME280;31440;48.584;13.460;2022-10-29T05:30:59;97668.59;;;7.77;100.00
45731;BME280;31440;48.584;13.460;2022-10-29T05:33:26;97669.84;;;7.48;100.00
45731;BME280;31440;48.584;13.460;2022-10-29T05:35:51;97671.69;;;7.40;100.00
45731;BME280;31440;48.584;13.460;2022-10-29T05:38:17;97665.56;;;7.46;100.00
45731;BME280;31440;48.584;13.460;2022-10-29T05:40:43;97664.63;;;7.50;100.00
45731;BME280;31440;48.584;13.460;2022-10-29T05:43:13;97669.59;;;7.66;100.00
45731;BME280;31440;48.584;13.460;2022-10-29T05:45:39;97651.75;;;7.47;100.00
45731;BME280;31440;48.584;13.460;2022-10-29T05:48:05;97655.75;;;7.69;100.00
45731;BME280;31440;48.584;13.460;2022-10-29T05:50:32;97660.03;;;7.71;100.00
45731;BME280;31440;48.584;13.460;2022-10-29T05:52:59;97666.78;;;7.82;100.00
45731;BME280;31440;48.584;13.460;2022-10-29T05:55:25;97657.66;;;7.56;100.00
45731;BME280;31440;48.584;13.460;2022-10-29T05:57:58;97673.06;;;7.67;100.00
45731;BME280;31440;48.584;13.460;2022-10-29T06:00:26;97687.03;;;7.52;100.00
45731;BME280;31440;48.584;13.460;2022-10-29T06:02:52;97674.88;;;7.59;100.00
45731;BME280;31440;48.584;13.460;2022-10-29T06:05:17;97704.84;;;7.75;100.00
45731;BME280;31440;48.584;13.460;2022-10-29T06:07:43;97717.78;;;7.77;100.00
45731;BME280;31440;48.584;13.460;2022-10-29T06:10:09;97727.22;;;7.81;100.00
45731;BME280;31440;48.584;13.460;2022-10-29T06:12:34;97715.81;;;7.92;100.00
45731;BME280;31440;48.584;13.460;2022-10-29T06:15:00;97718.44;;;7.89;100.00
45731;BME280;31440;48.584;13.460;2022-10-29T06:17:26;97709.19;;;7.71;100.00
45731;BME280;31440;48.584;13.460;2022-10-29T06:19:51;97708.28;;;7.77;100.00
45731;BME280;31440;48.584;13.460;2022-10-29T06:22:17;97703.91;;;7.81;100.00
45731;BME280;31440;48.584;13.460;2022-10-29T06:24:42;97704.19;;;7.59;100.00
45731;BME280;31440;48.584;13.460;2022-10-29T06:27:08;97709.16;;;7.74;100.00
45731;BME280;31440;48.584;13.460;2022-10-29T06:29:33;97711.88;;;7.67;100.00
45731;BME280;31440;48.584;13.460;2022-10-29T06:31:59;97720.69;;;8.67;100.00
45731;BME280;31440;48.584;13.460;2022-10-29T06:34:25;97719.72;;;10.02;100.00
45731;BME280;31440;48.584;13.460;2022-10-29T06:36:50;97705.31;;;9.89;100.00
45731;BME280;31440;48.584;13.460;2022-10-29T06:39:16;97704.41;;;9.90;100.00
45731;BME280;31440;48.584;13.460;2022-10-29T06:41:41;97707.56;;;10.40;100.00
45731;BME280;31440;48.584;13.460;2022-10-29T06:44:07;97711.53;;;10.55;100.00
45731;BME280;31440;48.584;13.460;2022-10-29T06:46:32;97714.44;;;10.76;100.00
45731;BME280;31440;48.584;13.460;2022-10-29T06:49:00;97715.00;;;11.22;100.00
45731;BME280;31440;48.584;13.460;2022-10-29T06:51:27;97709.91;;;11.48;100.00
45731;BME280;31440;48.584;13.460;2022-10-29T06:53:53;97705.91;;;10.00;100.00
45731;BME280;31440;48.584;13.460;2022-10-29T06:56:19;97725.38;;;8.95;100.00
45731;BME280;31440;48.584;13.460;2022-10-29T06:58:45;97720.63;;;8.18;100.00
45731;BME280;31440;48.584;13.460;2022-10-29T07:01:11;97719.84;;;8.12;100.00
45731;BME280;31440;48.584;13.460;2022-10-29T07:03:36;97710.84;;;8.38;100.00
45731;BME280;31440;48.584;13.460;2022-10-29T07:06:02;97702.81;;;8.52;100.00
45731;BME280;31440;48.584;13.460;2022-10-29T07:08:27;97707.16;;;8.50;100.00
45731;BME280;31440;48.584;13.460;2022-10-29T07:10:55;97718.47;;;8.46;100.00
45731;BME280;31440;48.584;13.460;2022-10-29T07:13:21;97719.28;;;8.50;100.00
45731;BME280;31440;48.584;13.460;2022-10-29T07:15:46;97719.00;;;8.65;100.00
45731;BME280;31440;48.584;13.460;2022-10-29T07:18:12;97719.22;;;9.00;100.00
45731;BME280;31440;48.584;13.460;2022-10-29T07:20:40;97706.69;;;9.24;100.00
45731;BME280;31440;48.584;13.460;2022-10-29T07:23:06;97714.88;;;9.02;100.00
45731;BME280;31440;48.584;13.460;2022-10-29T07:25:32;97709.25;;;8.79;100.00
45731;BME280;31440;48.584;13.460;2022-10-29T07:28:14;97709.66;;;9.04;100.00
45731;BME280;31440;48.584;13.460;2022-10-29T07:30:41;97723.41;;;8.60;100.00
45731;BME280;31440;48.584;13.460;2022-10-29T07:33:07;97715.31;;;8.78;100.00
45731;BME280;31440;48.584;13.460;2022-10-29T07:35:33;97735.88;;;8.89;100.00
45731;BME280;31440;48.584;13.460;2022-10-29T07:38:03;97734.66;;;9.08;100.00
45731;BME280;31440;48.584;13.460;2022-10-29T07:40:29;97723.50;;;8.55;100.00
45731;BME280;31440;48.584;13.460;2022-10-29T07:42:55;97726.22;;;8.48;100.00
45731;BME280;31440;48.584;13.460;2022-10-29T07:45:20;97735.81;;;8.41;100.00
45731;BME280;31440;48.584;13.460;2022-10-29T07:47:46;97738.78;;;8.70;100.00
45731;BME280;31440;48.584;13.460;2022-10-29T07:50:11;97730.03;;;8.76;100.00
45731;BME280;31440;48.584;13.460;2022-10-29T07:52:40;97741.72;;;9.00;100.00
45731;BME280;31440;48.584;13.460;2022-10-29T07:55:06;97733.22;;;8.92;100.00
45731;BME280;31440;48.584;13.460;2022-10-29T07:57:32;97740.88;;;8.98;100.00
45731;BME280;31440;48.584;13.460;2022-10-29T07:59:58;97747.53;;;9.11;100.00
45731;BME280;31440;48.584;13.460;2022-10-29T08:02:24;97737.53;;;9.37;100.00
45731;BME280;31440;48.584;13.460;2022-10-29T08:04:49;97736.22;;;9.60;100.00
45731;BME280;31440;48.584;13.460;2022-10-29T08:07:15;97738.78;;;10.01;100.00
45731;BME280;31440;48.584;13.460;2022-10-29T08:09:40;97737.22;;;9.94;100.00
45731;BME280;31440;48.584;13.460;2022-10-29T08:12:09;97743.09;;;10.39;100.00
45731;BME280;31440;48.584;13.460;2022-10-29T08:14:35;97738.75;;;11.08;100.00
45731;BME280;31440;48.584;13.460;2022-10-29T08:17:00;97740.75;;;10.98;100.00
45731;BME280;31440;48.584;13.460;2022-10-29T08:19:26;97738.81;;;11.39;100.00
45731;BME280;31440;48.584;13.460;2022-10-29T08:21:54;97736.00;;;11.46;100.00
45731;BME280;31440;48.584;13.460;2022-10-29T08:24:20;97731.91;;;11.67;100.00
45731;BME280;31440;48.584;13.460;2022-10-29T08:26:46;97739.13;;;11.59;100.00
45731;BME280;31440;48.584;13.460;2022-10-29T08:29:11;97731.75;;;11.73;100.00
45731;BME280;31440;48.584;13.460;2022-10-29T08:31:37;97727.50;;;11.99;100.00
45731;BME280;31440;48.584;13.460;2022-10-29T08:34:02;97723.91;;;12.03;100.00
45731;BME280;31440;48.584;13.460;2022-10-29T08:36:28;97727.63;;;11.96;100.00
45731;BME280;31440;48.584;13.460;2022-10-29T08:38:53;97707.72;;;12.49;100.00
45731;BME280;31440;48.584;13.460;2022-10-29T08:46:43;97733.00;;;12.98;100.00
45731;BME280;31440;48.584;13.460;2022-10-29T08:49:17;97739.50;;;12.60;100.00
45731;BME280;31440;48.584;13.460;2022-10-29T08:52:14;97744.91;;;12.54;100.00
45731;BME280;31440;48.584;13.460;2022-10-29T08:54:47;97742.59;;;12.45;100.00
45731;BME280;31440;48.584;13.460;2022-10-29T08:57:15;97740.03;;;12.43;100.00
45731;BME280;31440;48.584;13.460;2022-10-29T09:00:04;97745.78;;;12.81;100.00
45731;BME280;31440;48.584;13.460;2022-10-29T09:02:30;97735.22;;;13.09;100.00
45731;BME280;31440;48.584;13.460;2022-10-29T09:04:56;97743.53;;;12.95;100.00
45731;BME280;31440;48.584;13.460;2022-10-29T09:10:27;97732.81;;;12.78;100.00
45731;BME280;31440;48.584;13.460;2022-10-29T09:15:47;97722.88;;;13.85;100.00
45731;BME280;31440;48.584;13.460;2022-10-29T09:18:47;97727.66;;;14.19;100.00
45731;BME280;31440;48.584;13.460;2022-10-29T09:21:28;97715.88;;;14.09;100.00
45731;BME280;31440;48.584;13.460;2022-10-29T09:24:04;97719.69;;;14.01;100.00
45731;BME280;31440;48.584;13.460;2022-10-29T09:26:58;97718.16;;;14.17;100.00
45731;BME280;31440;48.584;13.460;2022-10-29T09:29:31;97726.03;;;14.39;100.00
45731;BME280;31440;48.584;13.460;2022-10-29T09:32:04;97709.50;;;14.80;100.00
45731;BME280;31440;48.584;13.460;2022-10-29T09:34:37;97718.06;;;14.42;100.00
45731;BME280;31440;48.584;13.460;2022-10-29T09:37:13;97711.84;;;14.44;100.00
45731;BME280;31440;48.584;13.460;2022-10-29T09:39:40;97719.50;;;14.49;100.00
45731;BME280;31440;48.584;13.460;2022-10-29T09:42:17;97716.97;;;14.25;100.00
45731;BME280;31440;48.584;13.460;2022-10-29T09:44:55;97709.56;;;14.57;100.00
45731;BME280;31440;48.584;13.460;2022-10-29T09:47:39;97711.00;;;14.86;100.00
45731;BME280;31440;48.584;13.460;2022-10-29T09:50:18;97705.03;;;15.02;100.00
45731;BME280;31440;48.584;13.460;2022-10-29T09:52:47;97706.06;;;15.00;100.00
45731;BME280;31440;48.584;13.460;2022-10-29T09:55:20;97697.84;;;15.08;100.00
45731;BME280;31440;48.584;13.460;2022-10-29T09:57:47;97702.84;;;15.53;100.00
45731;BME280;31440;48.584;13.460;2022-10-29T10:00:28;97707.66;;;15.02;100.00
45731;BME280;31440;48.584;13.460;2022-10-29T10:03:05;97697.50;;;15.35;100.00
45731;BME280;31440;48.584;13.460;2022-10-29T10:05:35;97688.44;;;15.61;100.00
45731;BME280;31440;48.584;13.460;2022-10-29T10:08:19;97686.06;;;15.18;100.00
45731;BME280;31440;48.584;13.460;2022-10-29T10:10:58;97687.25;;;15.11;100.00
45731;BME280;31440;48.584;13.460;2022-10-29T10:13:35;97684.03;;;15.82;100.00
45731;BME280;31440;48.584;13.460;2022-10-29T10:16:04;97682.34;;;15.61;100.00
45731;BME280;31440;48.584;13.460;2022-10-29T10:23:28;97660.91;;;15.14;100.00
45731;BME280;31440;48.584;13.460;2022-10-29T10:25:56;97665.38;;;15.12;100.00
45731;BME280;31440;48.584;13.460;2022-10-29T10:28:29;97665.81;;;15.21;100.00
45731;BME280;31440;48.584;13.460;2022-10-29T10:31:14;97663.63;;;14.92;100.00
45731;BME280;31440;48.584;13.460;2022-10-29T10:33:52;97663.50;;;14.95;100.00
45731;BME280;31440;48.584;13.460;2022-10-29T10:36:22;97654.72;;;14.96;100.00
45731;BME280;31440;48.584;13.460;2022-10-29T10:38:53;97648.75;;;15.13;100.00
45731;BME280;31440;48.584;13.460;2022-10-29T10:41:26;97658.78;;;15.22;100.00
45731;BME280;31440;48.584;13.460;2022-10-29T10:43:57;97652.72;;;15.40;100.00
45731;BME280;31440;48.584;13.460;2022-10-29T10:48:58;97640.88;;;15.13;100.00
45731;BME280;31440;48.584;13.460;2022-10-29T10:51:39;97638.44;;;15.28;100.00
45731;BME280;31440;48.584;13.460;2022-10-29T10:56:57;97645.09;;;15.92;100.00
45731;BME280;31440;48.584;13.460;2022-10-29T10:59:30;97650.84;;;16.00;100.00
45731;BME280;31440;48.584;13.460;2022-10-29T11:02:03;97654.34;;;16.71;100.00
45731;BME280;31440;48.584;13.460;2022-10-29T11:04:33;97652.53;;;17.06;100.00
45731;BME280;31440;48.584;13.460;2022-10-29T11:07:05;97654.66;;;16.29;100.00
45731;BME280;31440;48.584;13.460;2022-10-29T11:09:36;97635.66;;;16.07;100.00
45731;BME280;31440;48.584;13.460;2022-10-29T11:12:26;97638.41;;;16.22;100.00
45731;BME280;31440;48.584;13.460;2022-10-29T11:15:29;97635.53;;;16.80;100.00
45731;BME280;31440;48.584;13.460;2022-10-29T11:18:03;97641.25;;;17.04;100.00
45731;BME280;31440;48.584;13.460;2022-10-29T11:20:34;97634.22;;;17.04;98.82
45731;BME280;31440;48.584;13.460;2022-10-29T11:25:59;97636.16;;;17.01;100.00
45731;BME280;31440;48.584;13.460;2022-10-29T11:28:37;97632.97;;;16.79;100.00
45731;BME280;31440;48.584;13.460;2022-10-29T11:34:16;97631.97;;;17.47;100.00
45731;BME280;31440;48.584;13.460;2022-10-29T11:36:57;97630.41;;;17.27;100.00
45731;BME280;31440;48.584;13.460;2022-10-29T11:39:30;97628.28;;;17.51;100.00
45731;BME280;31440;48.584;13.460;2022-10-29T11:41:58;97622.00;;;17.69;100.00
45731;BME280;31440;48.584;13.460;2022-10-29T11:44:25;97617.25;;;17.76;100.00
45731;BME280;31440;48.584;13.460;2022-10-29T11:52:45;97602.41;;;18.66;100.00
45731;BME280;31440;48.584;13.460;2022-10-29T11:55:27;97606.25;;;18.61;100.00
45731;BME280;31440;48.584;13.460;2022-10-29T11:57:58;97603.50;;;18.02;100.00
45731;BME280;31440;48.584;13.460;2022-10-29T12:00:26;97604.88;;;17.62;100.00
45731;BME280;31440;48.584;13.460;2022-10-29T12:03:13;97600.53;;;17.61;100.00
45731;BME280;31440;48.584;13.460;2022-10-29T12:08:36;97590.34;;;18.32;93.97
45731;BME280;31440;48.584;13.460;2022-10-29T12:14:00;97583.97;;;18.80;87.70
45731;BME280;31440;48.584;13.460;2022-10-29T12:16:34;97574.38;;;19.51;81.93
45731;BME280;31440;48.584;13.460;2022-10-29T12:22:13;97577.97;;;18.78;80.18
45731;BME280;31440;48.584;13.460;2022-10-29T12:27:16;97563.38;;;19.58;78.01
45731;BME280;31440;48.584;13.460;2022-10-29T12:29:57;97566.41;;;19.09;78.06
45731;BME280;31440;48.584;13.460;2022-10-29T12:32:57;97561.91;;;19.81;76.89
45731;BME280;31440;48.584;13.460;2022-10-29T12:35:30;97554.78;;;21.00;73.35
45731;BME280;31440;48.584;13.460;2022-10-29T12:40:42;97552.53;;;22.40;67.33
45731;BME280;31440;48.584;13.460;2022-10-29T12:43:34;97540.59;;;22.70;59.04
45731;BME280;31440;48.584;13.460;2022-10-29T12:49:09;97550.38;;;23.47;57.69
45731;BME280;31440;48.584;13.460;2022-10-29T12:51:55;97541.22;;;23.51;55.77
45731;BME280;31440;48.584;13.460;2022-10-29T12:54:42;97543.75;;;23.53;53.35
45731;BME280;31440;48.584;13.460;2022-10-29T12:59:37;97538.69;;;23.61;56.12
45731;BME280;31440;48.584;13.460;2022-10-29T13:07:30;97518.66;;;23.57;50.07
45731;BME280;31440;48.584;13.460;2022-10-29T13:15:46;97515.88;;;24.13;48.30
45731;BME280;31440;48.584;13.460;2022-10-29T13:18:25;97511.63;;;24.63;46.45
45731;BME280;31440;48.584;13.460;2022-10-29T13:20:53;97510.19;;;24.59;48.65
45731;BME280;31440;48.584;13.460;2022-10-29T13:26:07;97505.81;;;24.48;47.21
45731;BME280;31440;48.584;13.460;2022-10-29T13:36:34;97498.19;;;24.85;44.85
45731;BME280;31440;48.584;13.460;2022-10-29T13:41:26;97495.81;;;24.61;43.45
45731;BME280;31440;48.584;13.460;2022-10-29T13:44:18;97495.38;;;24.04;44.21
45731;BME280;31440;48.584;13.460;2022-10-29T13:52:09;97487.34;;;24.47;45.45
45731;BME280;31440;48.584;13.460;2022-10-29T13:54:40;97489.97;;;24.26;46.47
45731;BME280;31440;48.584;13.460;2022-10-29T13:57:17;97486.19;;;24.28;46.54
45731;BME280;31440;48.584;13.460;2022-10-29T13:59:58;97492.53;;;23.84;46.48
45731;BME280;31440;48.584;13.460;2022-10-29T14:07:53;97489.78;;;23.20;48.36
45731;BME280;31440;48.584;13.460;2022-10-29T14:10:24;97496.03;;;23.42;46.29
45731;BME280;31440;48.584;13.460;2022-10-29T14:12:59;97491.28;;;23.56;46.08
45731;BME280;31440;48.584;13.460;2022-10-29T14:15:25;97482.84;;;23.63;46.26
45731;BME280;31440;48.584;13.460;2022-10-29T14:17:51;97484.75;;;23.72;45.69
45731;BME280;31440;48.584;13.460;2022-10-29T14:20:25;97478.34;;;23.74;46.50
45731;BME280;31440;48.584;13.460;2022-10-29T14:22:51;97477.09;;;23.35;48.71
45731;BME280;31440;48.584;13.460;2022-10-29T14:25:32;97476.41;;;23.22;46.42
45731;BME280;31440;48.584;13.460;2022-10-29T14:34:01;97461.81;;;22.83;49.39
45731;BME280;31440;48.584;13.460;2022-10-29T14:39:24;97463.47;;;22.73;50.33
45731;BME280;31440;48.584;13.460;2022-10-29T14:41:50;97465.63;;;21.75;51.83
45731;BME280;31440;48.584;13.460;2022-10-29T14:44:18;97465.31;;;21.07;53.44
45731;BME280;31440;48.584;13.460;2022-10-29T14:46:51;97473.28;;;20.81;55.45
45731;BME280;31440;48.584;13.460;2022-10-29T14:49:23;97470.59;;;20.94;56.18
45731;BME280;31440;48.584;13.460;2022-10-29T14:52:05;97468.38;;;20.75;56.42
45731;BME280;31440;48.584;13.460;2022-10-29T14:54:32;97469.63;;;19.67;61.05